createdAt,value
2019-02-17T00:00:59.385Z,39.77
2019-02-17T00:03:26.047Z,32.80
2019-02-17T00:05:52.736Z,33.47
2019-02-17T00:08:19.449Z,34.50
2019-02-17T00:10:46.376Z,37.07
2019-02-17T00:13:13.903Z,28.10
2019-02-17T00:15:40.799Z,25.43
2019-02-17T00:18:07.627Z,22.63
2019-02-17T00:20:35.128Z,39.53
2019-02-17T00:23:02.241Z,26.50
2019-02-17T00:25:29.535Z,30.90
2019-02-17T00:27:56.798Z,26.63
2019-02-17T00:30:24.132Z,34.43
2019-02-17T00:32:51.404Z,32.70
2019-02-17T00:35:18.700Z,31.33
2019-02-17T00:37:46.825Z,43.03
2019-02-17T00:40:14.329Z,34.60
2019-02-17T00:42:41.013Z,29.23
2019-02-17T00:45:08.518Z,25.93
2019-02-17T00:47:36.368Z,28.60
2019-02-17T00:50:04.583Z,49.93
2019-02-17T00:52:32.067Z,44.30
2019-02-17T00:55:00.041Z,36.23
2019-02-17T00:57:27.918Z,29.83
2019-02-17T00:59:54.988Z,40.93
2019-02-17T01:02:23.073Z,23.03
2019-02-17T01:04:50.804Z,52.33
2019-02-17T01:07:17.610Z,29.30
2019-02-17T01:09:45.018Z,31.97
2019-02-17T01:12:12.258Z,29.80
2019-02-17T01:14:39.187Z,28.43
2019-02-17T01:17:06.234Z,44.20
2019-02-17T01:19:34.525Z,33.90
2019-02-17T01:22:01.485Z,37.43
2019-02-17T01:24:29.018Z,27.50
2019-02-17T01:26:55.723Z,43.47
2019-02-17T01:29:54.871Z,36.60
2019-02-17T01:32:50.143Z,32.90
2019-02-17T01:35:15.677Z,38.50
2019-02-17T01:37:42.389Z,34.07
2019-02-17T01:40:10.055Z,34.17
2019-02-17T01:42:36.865Z,28.60
2019-02-17T01:45:04.879Z,43.60
2019-02-17T01:47:32.551Z,38.53
2019-02-17T01:49:59.780Z,38.40
2019-02-17T01:52:27.087Z,38.83
2019-02-17T01:54:54.622Z,35.27
2019-02-17T01:57:21.874Z,40.90
2019-02-17T01:59:48.823Z,35.07
2019-02-17T02:02:16.272Z,31.27
2019-02-17T02:04:43.070Z,33.23
2019-02-17T02:07:10.245Z,35.10
2019-02-17T02:09:37.290Z,42.43
2019-02-17T02:12:04.430Z,31.03
2019-02-17T02:14:31.723Z,21.17
2019-02-17T02:16:58.772Z,36.43
2019-02-17T02:19:25.535Z,31.27
2019-02-17T02:21:52.856Z,32.20
2019-02-17T02:24:19.546Z,34.07
2019-02-17T02:26:46.303Z,32.00
2019-02-17T02:29:13.357Z,38.23
2019-02-17T02:31:40.515Z,43.87
2019-02-17T02:34:07.991Z,30.43
2019-02-17T02:36:35.298Z,29.30
2019-02-17T02:39:03.716Z,32.10
2019-02-17T02:41:34.945Z,27.47
2019-02-17T02:44:01.029Z,38.80
2019-02-17T02:46:28.422Z,23.87
2019-02-17T02:48:57.951Z,23.07
2019-02-17T02:51:24.741Z,25.20
2019-02-17T02:53:51.668Z,22.27
2019-02-17T02:56:18.356Z,26.87
2019-02-17T02:58:45.033Z,34.57
2019-02-17T03:01:12.453Z,37.07
2019-02-17T03:03:39.918Z,29.83
2019-02-17T03:06:14.729Z,22.13
2019-02-17T03:08:41.984Z,32.13
2019-02-17T03:11:08.921Z,31.07
2019-02-17T03:13:36.125Z,27.57
2019-02-17T03:16:02.914Z,37.30
2019-02-17T03:18:31.025Z,33.07
2019-02-17T03:20:58.269Z,37.67
2019-02-17T03:23:24.961Z,34.70
2019-02-17T03:25:51.982Z,36.60
2019-02-17T03:28:19.495Z,38.23
2019-02-17T03:30:46.673Z,35.73
2019-02-17T03:33:13.903Z,48.53
2019-02-17T03:35:41.049Z,34.83
2019-02-17T03:38:07.997Z,25.07
2019-02-17T03:40:34.797Z,42.40
2019-02-17T03:43:02.036Z,39.07
2019-02-17T03:45:29.480Z,33.07
2019-02-17T03:47:56.768Z,41.37
2019-02-17T03:50:23.862Z,32.87
2019-02-17T03:52:50.680Z,42.53
2019-02-17T03:55:19.134Z,29.63
2019-02-17T03:57:46.058Z,42.60
2019-02-17T04:00:16.856Z,44.73
2019-02-17T04:02:43.269Z,41.40
2019-02-17T04:05:10.633Z,38.73
2019-02-17T04:07:37.669Z,48.10
2019-02-17T04:10:05.248Z,41.13
2019-02-17T04:12:32.532Z,40.90
2019-02-17T04:14:59.469Z,44.87
2019-02-17T04:17:26.142Z,40.90
2019-02-17T04:19:53.506Z,40.23
2019-02-17T04:22:21.309Z,44.70
2019-02-17T04:24:48.325Z,37.30
2019-02-17T04:27:15.416Z,41.90
2019-02-17T04:29:42.858Z,44.67
2019-02-17T04:32:10.522Z,44.00
2019-02-17T04:34:38.151Z,42.70
2019-02-17T04:37:05.207Z,47.43
2019-02-17T04:39:32.879Z,46.93
2019-02-17T04:41:59.557Z,43.73
2019-02-17T04:44:27.610Z,43.00
2019-02-17T04:46:55.353Z,38.10
2019-02-17T04:49:22.922Z,56.53
2019-02-17T04:51:50.853Z,48.87
2019-02-17T04:54:17.550Z,47.03
2019-02-17T04:56:44.733Z,40.87
2019-02-17T04:59:12.966Z,40.43
2019-02-17T05:01:40.039Z,52.73
2019-02-17T05:04:07.534Z,41.67
2019-02-17T05:06:34.437Z,44.33
2019-02-17T05:09:01.729Z,48.30
2019-02-17T05:11:30.915Z,43.30
2019-02-17T05:13:58.117Z,47.03
2019-02-17T05:16:25.586Z,41.97
2019-02-17T05:18:52.806Z,52.47
2019-02-17T05:21:19.860Z,47.33
2019-02-17T05:23:48.517Z,48.20
2019-02-17T05:26:15.613Z,48.63
2019-02-17T05:28:42.390Z,47.70
2019-02-17T05:31:09.978Z,43.37
2019-02-17T05:33:36.646Z,47.57
2019-02-17T05:36:03.384Z,46.23
2019-02-17T05:38:30.322Z,62.97
2019-02-17T05:40:57.429Z,48.13
2019-02-17T05:43:24.774Z,54.17
2019-02-17T05:45:52.163Z,55.57
2019-02-17T05:48:18.948Z,53.63
2019-02-17T05:50:45.623Z,52.93
2019-02-17T05:53:12.889Z,55.33
2019-02-17T05:55:40.870Z,64.00
2019-02-17T05:58:08.158Z,58.60
2019-02-17T06:00:37.007Z,59.40
2019-02-17T06:03:03.777Z,56.53
2019-02-17T06:05:31.098Z,57.67
2019-02-17T06:07:59.023Z,61.43
2019-02-17T06:10:26.997Z,52.20
2019-02-17T06:12:53.776Z,58.63
2019-02-17T06:15:20.748Z,58.60
2019-02-17T06:17:47.430Z,48.07
2019-02-17T06:20:14.722Z,55.07
2019-02-17T06:22:42.508Z,59.37
2019-02-17T06:25:09.810Z,58.07
2019-02-17T06:27:37.493Z,46.90
2019-02-17T06:30:04.560Z,57.00
2019-02-17T06:32:31.797Z,55.23
2019-02-17T06:34:59.008Z,49.57
2019-02-17T06:37:25.983Z,49.07
2019-02-17T06:39:53.019Z,50.30
2019-02-17T06:42:20.169Z,59.23
2019-02-17T06:44:47.960Z,50.00
2019-02-17T06:47:19.914Z,52.57
2019-02-17T06:49:47.331Z,60.37
2019-02-17T06:52:14.929Z,55.27
2019-02-17T06:54:43.763Z,54.93
2019-02-17T06:57:21.206Z,55.37
2019-02-17T06:59:50.456Z,55.37
2019-02-17T07:02:17.738Z,52.43
2019-02-17T07:05:22.925Z,63.67
2019-02-17T07:07:50.246Z,54.73
2019-02-17T07:10:17.310Z,57.10
2019-02-17T07:12:44.349Z,64.13
2019-02-17T07:15:11.619Z,60.70
2019-02-17T07:17:38.779Z,58.83
2019-02-17T07:20:05.703Z,56.67
2019-02-17T07:22:33.242Z,60.20
2019-02-17T07:25:00.906Z,58.60
2019-02-17T07:27:27.693Z,58.83
2019-02-17T07:29:55.022Z,69.20
2019-02-17T07:32:21.710Z,69.33
2019-02-17T07:34:48.904Z,62.60
2019-02-17T07:37:18.780Z,71.23
2019-02-17T07:39:45.863Z,73.40
2019-02-17T07:42:13.243Z,64.63
2019-02-17T07:44:40.644Z,69.90
2019-02-17T07:47:07.283Z,75.80
2019-02-17T07:49:34.068Z,77.67
2019-02-17T07:52:01.733Z,69.13
2019-02-17T07:54:28.824Z,76.63
2019-02-17T07:56:56.039Z,68.07
2019-02-17T07:59:23.686Z,79.50
2019-02-17T08:01:50.914Z,71.57
2019-02-17T08:04:17.593Z,70.50
2019-02-17T08:06:44.609Z,77.40
2019-02-17T08:09:12.569Z,70.37
2019-02-17T08:11:39.679Z,68.13
2019-02-17T08:14:06.586Z,71.97
2019-02-17T08:16:33.516Z,74.43
2019-02-17T08:19:01.157Z,72.77
2019-02-17T08:21:28.288Z,75.87
2019-02-17T08:23:56.020Z,75.20
2019-02-17T08:26:23.453Z,74.57
2019-02-17T08:28:50.160Z,68.30
2019-02-17T08:31:17.332Z,71.43
2019-02-17T08:33:44.023Z,69.67
2019-02-17T08:36:11.078Z,69.73
2019-02-17T08:38:38.984Z,70.40
2019-02-17T08:41:05.793Z,74.57
2019-02-17T08:43:33.285Z,89.00
2019-02-17T08:46:00.568Z,71.80
2019-02-17T08:48:30.337Z,69.50
2019-02-17T08:50:58.111Z,81.87
2019-02-17T08:53:25.160Z,74.10
2019-02-17T08:55:52.921Z,91.80
2019-02-17T08:58:20.172Z,74.30
2019-02-17T09:00:46.850Z,100.57
2019-02-17T09:03:15.207Z,118.33
2019-02-17T09:05:44.412Z,85.97
2019-02-17T09:08:11.387Z,87.70
2019-02-17T09:10:39.090Z,92.67
2019-02-17T09:13:05.862Z,88.80
2019-02-17T09:15:33.087Z,73.10
2019-02-17T09:18:01.066Z,77.83
2019-02-17T09:20:28.589Z,83.07
2019-02-17T09:22:56.022Z,74.13
2019-02-17T09:25:22.904Z,76.50
2019-02-17T09:27:50.165Z,67.20
2019-02-17T09:30:17.481Z,79.37
2019-02-17T09:32:45.195Z,81.03
2019-02-17T09:35:11.862Z,64.57
2019-02-17T09:37:38.932Z,77.43
2019-02-17T09:40:08.178Z,68.13
2019-02-17T09:42:35.428Z,64.87
2019-02-17T09:45:03.183Z,74.27
2019-02-17T09:47:30.238Z,73.00
2019-02-17T09:49:57.434Z,70.13
2019-02-17T09:52:24.247Z,74.93
2019-02-17T09:54:51.731Z,72.27
2019-02-17T09:57:18.753Z,64.17
2019-02-17T09:59:46.030Z,78.37
2019-02-17T10:02:13.002Z,74.33
2019-02-17T10:04:39.934Z,70.33
2019-02-17T10:07:06.616Z,77.87
2019-02-17T10:09:33.864Z,78.27
2019-02-17T10:12:01.442Z,79.23
2019-02-17T10:14:28.710Z,82.60
2019-02-17T10:16:55.581Z,67.50
2019-02-17T10:19:22.549Z,69.57
2019-02-17T10:21:49.744Z,68.50
2019-02-17T10:24:16.426Z,69.57
2019-02-17T10:26:43.507Z,70.57
2019-02-17T10:29:10.813Z,62.37
2019-02-17T10:31:38.691Z,67.00
2019-02-17T10:34:06.029Z,59.83
2019-02-17T10:36:32.726Z,68.27
2019-02-17T10:39:00.480Z,67.53
2019-02-17T10:41:29.088Z,57.73
2019-02-17T10:43:56.024Z,54.20
2019-02-17T10:46:24.071Z,64.77
2019-02-17T10:48:50.774Z,65.27
2019-02-17T10:51:17.457Z,65.27
2019-02-17T10:53:45.223Z,68.87
2019-02-17T10:56:12.558Z,65.03
2019-02-17T10:58:39.881Z,67.10
2019-02-17T11:01:06.694Z,68.17
2019-02-17T11:03:34.039Z,45.33
2019-02-17T11:06:01.257Z,55.37
2019-02-17T11:08:27.938Z,63.03
2019-02-17T11:10:56.039Z,39.07
2019-02-17T11:13:24.234Z,56.57
2019-02-17T11:15:51.263Z,64.67
2019-02-17T11:18:18.509Z,63.13
2019-02-17T11:20:46.869Z,65.83
2019-02-17T11:23:14.028Z,61.67
2019-02-17T11:25:41.379Z,71.13
2019-02-17T11:28:08.682Z,78.83
2019-02-17T11:30:35.693Z,62.03
2019-02-17T11:33:02.674Z,69.03
2019-02-17T11:35:30.220Z,82.63
2019-02-17T11:37:57.535Z,65.30
2019-02-17T11:40:25.354Z,52.80
2019-02-17T11:42:52.946Z,50.57
2019-02-17T11:45:20.065Z,56.20
2019-02-17T11:47:47.331Z,77.43
2019-02-17T11:50:15.824Z,52.87
2019-02-17T11:52:42.647Z,54.60
2019-02-17T11:55:10.587Z,58.77
2019-02-17T11:57:38.978Z,52.23
2019-02-17T12:00:12.701Z,50.53
2019-02-17T12:02:39.935Z,52.43
2019-02-17T12:05:08.599Z,55.30
2019-02-17T12:07:38.938Z,54.00
2019-02-17T12:10:06.553Z,83.23
2019-02-17T12:12:33.345Z,48.77
2019-02-17T12:15:00.393Z,50.13
2019-02-17T12:17:28.364Z,46.83
2019-02-17T12:20:01.941Z,55.37
2019-02-17T12:22:40.669Z,41.73
2019-02-17T12:25:17.832Z,45.03
2019-02-17T12:27:51.869Z,49.10
2019-02-17T12:30:21.652Z,49.60
2019-02-17T12:32:48.442Z,40.50
2019-02-17T12:35:15.686Z,44.80
2019-02-17T12:37:42.641Z,49.70
2019-02-17T12:40:10.917Z,45.97
2019-02-17T12:42:38.098Z,46.27
2019-02-17T12:45:08.705Z,49.77
2019-02-17T12:47:36.645Z,43.90
2019-02-17T12:50:05.959Z,47.27
2019-02-17T12:52:32.895Z,42.77
2019-02-17T12:55:00.366Z,40.90
2019-02-17T12:57:27.529Z,34.97
2019-02-17T12:59:55.065Z,44.37
2019-02-17T13:02:23.504Z,45.13
2019-02-17T13:04:50.195Z,40.13
2019-02-17T13:07:17.221Z,42.73
2019-02-17T13:09:44.388Z,47.57
2019-02-17T13:12:11.941Z,44.13
2019-02-17T13:14:40.618Z,41.80
2019-02-17T13:17:08.067Z,41.03
2019-02-17T13:19:34.844Z,45.10
2019-02-17T13:22:01.815Z,44.50
2019-02-17T13:24:28.902Z,43.13
2019-02-17T13:26:56.766Z,48.97
2019-02-17T13:29:24.876Z,60.07
2019-02-17T13:31:52.094Z,39.37
2019-02-17T13:34:19.171Z,52.33
2019-02-17T13:36:46.407Z,40.50
2019-02-17T13:39:13.586Z,74.67
2019-02-17T13:41:40.793Z,53.83
2019-02-17T13:44:08.406Z,47.13
2019-02-17T13:46:35.645Z,43.53
2019-02-17T13:49:03.577Z,48.67
2019-02-17T13:51:30.896Z,40.50
2019-02-17T13:53:59.225Z,35.57
2019-02-17T13:56:26.366Z,37.87
2019-02-17T13:58:53.682Z,46.77
2019-02-17T14:01:20.977Z,39.77
2019-02-17T14:03:49.396Z,40.00
2019-02-17T14:06:16.341Z,41.70
2019-02-17T14:08:43.537Z,40.53
2019-02-17T14:11:10.585Z,41.70
2019-02-17T14:13:37.630Z,41.43
2019-02-17T14:16:04.790Z,36.93
2019-02-17T14:18:32.051Z,40.53
2019-02-17T14:20:58.818Z,34.70
2019-02-17T14:23:26.449Z,37.63
2019-02-17T14:25:53.915Z,41.90
2019-02-17T14:28:20.617Z,39.77
2019-02-17T14:30:48.023Z,37.53
2019-02-17T14:33:15.471Z,42.03
2019-02-17T14:35:42.137Z,37.43
2019-02-17T14:38:09.353Z,47.13
2019-02-17T14:40:36.482Z,39.53
2019-02-17T14:43:03.289Z,36.80
2019-02-17T14:45:31.281Z,54.47
2019-02-17T14:47:58.330Z,36.23
2019-02-17T14:50:25.261Z,61.10
2019-02-17T14:52:52.546Z,103.10
2019-02-17T14:55:19.913Z,101.43
2019-02-17T14:57:47.030Z,44.03
2019-02-17T15:00:15.216Z,58.20
2019-02-17T15:02:42.557Z,37.90
2019-02-17T15:05:10.237Z,56.83
2019-02-17T15:07:37.046Z,38.80
2019-02-17T15:10:04.750Z,36.23
2019-02-17T15:12:31.879Z,39.30
2019-02-17T15:14:59.699Z,52.00
2019-02-17T15:17:26.392Z,46.00
2019-02-17T15:19:53.637Z,44.10
2019-02-17T15:22:20.583Z,46.03
2019-02-17T15:24:47.625Z,39.33
2019-02-17T15:27:15.711Z,40.97
2019-02-17T15:29:43.497Z,33.50
2019-02-17T15:32:10.197Z,39.93
2019-02-17T15:34:37.181Z,43.70
2019-02-17T15:37:04.147Z,39.60
2019-02-17T15:39:31.528Z,29.90
2019-02-17T15:41:58.907Z,31.93
2019-02-17T15:44:29.444Z,40.70
2019-02-17T15:46:56.785Z,45.60
2019-02-17T15:49:23.945Z,38.57
2019-02-17T15:51:50.755Z,37.90
2019-02-17T15:54:17.650Z,33.30
2019-02-17T15:56:44.764Z,56.80
2019-02-17T15:59:12.225Z,37.37
2019-02-17T16:01:39.394Z,44.13
2019-02-17T16:04:06.519Z,57.57
2019-02-17T16:06:33.605Z,45.07
2019-02-17T16:09:00.370Z,51.20
2019-02-17T16:11:27.072Z,61.50
2019-02-17T16:13:58.700Z,60.00
2019-02-17T16:16:26.676Z,41.50
2019-02-17T16:18:54.241Z,72.10
2019-02-17T16:21:23.531Z,66.47
2019-02-17T16:23:51.351Z,35.77
2019-02-17T16:26:21.839Z,48.03
2019-02-17T16:28:54.250Z,33.90
2019-02-17T16:31:22.356Z,42.13
2019-02-17T16:33:49.739Z,35.83
2019-02-17T16:36:16.890Z,34.90
2019-02-17T16:38:44.083Z,32.60
2019-02-17T16:41:11.150Z,38.57
2019-02-17T16:43:39.139Z,34.03
2019-02-17T16:46:07.031Z,30.97
2019-02-17T16:48:34.285Z,31.20
2019-02-17T16:51:01.440Z,36.37
2019-02-17T16:53:30.287Z,33.40
2019-02-17T16:55:57.759Z,37.60
2019-02-17T16:58:24.801Z,37.67
2019-02-17T17:00:52.069Z,33.63
2019-02-17T17:03:19.384Z,38.93
2019-02-17T17:05:46.560Z,37.37
2019-02-17T17:08:13.427Z,38.00
2019-02-17T17:10:41.383Z,40.13
2019-02-17T17:13:08.742Z,42.30
2019-02-17T17:15:36.196Z,46.73
2019-02-17T17:18:08.906Z,44.40
2019-02-17T17:20:35.858Z,44.33
2019-02-17T17:23:05.277Z,44.17
2019-02-17T17:25:32.533Z,43.53
2019-02-17T17:28:02.574Z,51.53
2019-02-17T17:30:29.986Z,39.83
2019-02-17T17:32:57.250Z,45.30
2019-02-17T17:35:24.247Z,45.70
2019-02-17T17:37:51.050Z,41.87
2019-02-17T17:40:18.467Z,48.07
2019-02-17T17:42:45.717Z,42.80
2019-02-17T17:45:13.485Z,45.63
2019-02-17T17:47:44.644Z,50.20
2019-02-17T17:50:12.558Z,59.83
2019-02-17T17:52:39.446Z,51.73
2019-02-17T17:55:06.394Z,47.40
2019-02-17T17:57:34.083Z,48.70
2019-02-17T18:00:02.088Z,43.70
2019-02-17T18:02:31.453Z,45.57
2019-02-17T18:05:08.522Z,49.30
2019-02-17T18:07:28.751Z,46.00
2019-02-17T18:09:56.015Z,58.00
2019-02-17T18:12:23.775Z,48.87
2019-02-17T18:14:51.025Z,43.87
2019-02-17T18:17:17.768Z,49.07
2019-02-17T18:19:45.405Z,111.57
2019-02-17T18:22:12.585Z,88.77
2019-02-17T18:24:39.571Z,109.40
2019-02-17T18:27:07.177Z,91.77
2019-02-17T18:29:35.013Z,65.10
2019-02-17T18:32:02.626Z,54.57
2019-02-17T18:34:29.355Z,53.90
2019-02-17T18:36:56.389Z,65.33
2019-02-17T18:39:23.859Z,65.03
2019-02-17T18:41:51.336Z,63.00
2019-02-17T18:44:18.117Z,58.63
2019-02-17T18:46:44.985Z,56.43
2019-02-17T18:49:11.740Z,104.63
2019-02-17T18:51:38.768Z,47.27
2019-02-17T18:54:05.589Z,60.93
2019-02-17T18:56:33.868Z,68.20
2019-02-17T18:59:00.828Z,56.00
2019-02-17T19:01:28.109Z,70.43
2019-02-17T19:03:55.514Z,53.73
2019-02-17T19:06:22.450Z,56.87
2019-02-17T19:08:49.169Z,54.83
2019-02-17T19:11:16.877Z,63.47
2019-02-17T19:13:44.859Z,51.77
2019-02-17T19:16:11.593Z,61.87
2019-02-17T19:18:38.451Z,53.03
2019-02-17T19:21:06.418Z,47.00
2019-02-17T19:23:33.361Z,58.40
2019-02-17T19:26:00.507Z,52.93
2019-02-17T19:28:28.406Z,55.37
2019-02-17T19:30:55.273Z,54.33
2019-02-17T19:33:21.951Z,65.17
2019-02-17T19:35:49.954Z,54.97
2019-02-17T19:38:17.192Z,51.57
2019-02-17T19:40:44.013Z,57.17
2019-02-17T19:43:10.703Z,56.43
2019-02-17T19:45:37.846Z,53.03
2019-02-17T19:48:07.109Z,49.37
2019-02-17T19:50:34.066Z,55.10
2019-02-17T19:53:01.431Z,51.43
2019-02-17T19:55:28.104Z,51.03
2019-02-17T19:57:54.881Z,52.73
2019-02-17T20:00:23.354Z,45.83
2019-02-17T20:03:05.447Z,53.93
2019-02-17T20:05:35.701Z,285.43
2019-02-17T20:08:02.846Z,219.00
2019-02-17T20:10:30.546Z,84.50
2019-02-17T20:12:58.149Z,60.43
2019-02-17T20:15:28.838Z,55.13
2019-02-17T20:17:56.895Z,64.37
2019-02-17T20:20:23.994Z,55.73
2019-02-17T20:22:52.480Z,60.43
2019-02-17T20:25:19.351Z,47.77
2019-02-17T20:27:46.385Z,45.23
2019-02-17T20:30:13.532Z,47.93
2019-02-17T20:32:40.790Z,48.80
2019-02-17T20:35:08.363Z,49.10
2019-02-17T20:37:35.168Z,48.73
2019-02-17T20:40:02.008Z,46.40
2019-02-17T20:42:29.274Z,44.97
2019-02-17T20:44:56.297Z,49.23
2019-02-17T20:47:23.010Z,48.70
2019-02-17T20:49:49.698Z,48.77
2019-02-17T20:52:16.533Z,44.77
2019-02-17T20:54:43.509Z,46.10
2019-02-17T20:57:10.508Z,50.47
2019-02-17T20:59:38.011Z,55.87
2019-02-17T21:02:06.254Z,49.90
2019-02-17T21:04:33.145Z,52.70
2019-02-17T21:07:00.240Z,51.40
2019-02-17T21:09:27.015Z,54.50
2019-02-17T21:11:55.180Z,53.23
2019-02-17T21:14:22.523Z,53.50
2019-02-17T21:16:49.674Z,55.60
2019-02-17T21:19:16.986Z,55.50
2019-02-17T21:21:44.075Z,51.27
2019-02-17T21:24:11.243Z,53.13
2019-02-17T21:26:38.487Z,47.70
2019-02-17T21:29:05.497Z,57.23
2019-02-17T21:31:32.315Z,48.83
2019-02-17T21:33:59.538Z,54.47
2019-02-17T21:36:26.546Z,55.93
2019-02-17T21:38:53.244Z,49.80
2019-02-17T21:41:20.409Z,56.80
2019-02-17T21:43:47.999Z,46.57
2019-02-17T21:46:17.598Z,49.00
2019-02-17T21:48:45.086Z,46.27
2019-02-17T21:51:11.865Z,47.27
2019-02-17T21:53:38.783Z,53.73
2019-02-17T21:56:05.473Z,52.53
2019-02-17T21:58:33.470Z,50.97
2019-02-17T22:01:00.150Z,49.77
2019-02-17T22:03:27.693Z,58.17
2019-02-17T22:05:54.737Z,51.77
2019-02-17T22:08:22.795Z,50.63
2019-02-17T22:10:49.735Z,51.27
2019-02-17T22:13:17.374Z,41.93
2019-02-17T22:15:44.446Z,51.43
2019-02-17T22:18:11.149Z,48.23
2019-02-17T22:20:39.028Z,51.77
2019-02-17T22:23:05.699Z,55.70
2019-02-17T22:25:32.883Z,53.50
2019-02-17T22:27:59.553Z,58.20
2019-02-17T22:30:26.790Z,48.63
2019-02-17T22:32:53.687Z,48.53
2019-02-17T22:35:21.665Z,47.97
2019-02-17T22:37:48.893Z,54.87
2019-02-17T22:40:15.613Z,48.23
2019-02-17T22:42:42.664Z,48.57
2019-02-17T22:45:10.284Z,47.33
2019-02-17T22:47:37.674Z,56.57
2019-02-17T22:50:07.600Z,54.20
2019-02-17T22:52:34.917Z,49.80
2019-02-17T22:55:02.055Z,51.83
2019-02-17T22:57:29.549Z,49.87
2019-02-17T22:59:57.372Z,43.40
2019-02-17T23:02:25.236Z,46.17
2019-02-17T23:04:52.274Z,45.97
2019-02-17T23:07:19.055Z,49.73
2019-02-17T23:09:46.157Z,47.73
2019-02-17T23:12:13.801Z,50.83
2019-02-17T23:14:40.933Z,50.83
2019-02-17T23:17:07.551Z,49.40
2019-02-17T23:19:35.354Z,49.10
2019-02-17T23:22:02.040Z,48.33
2019-02-17T23:24:29.316Z,50.70
2019-02-17T23:26:56.469Z,48.70
2019-02-17T23:29:23.763Z,54.90
2019-02-17T23:31:51.999Z,53.60
2019-02-17T23:34:19.187Z,43.57
2019-02-17T23:36:46.501Z,53.30
2019-02-17T23:39:14.013Z,51.33
2019-02-17T23:41:41.551Z,46.47
2019-02-17T23:44:09.086Z,45.10
2019-02-17T23:46:36.660Z,51.27
2019-02-17T23:49:03.914Z,49.13
2019-02-17T23:51:30.674Z,49.67
2019-02-17T23:53:57.675Z,45.53
2019-02-17T23:56:24.362Z,49.60
2019-02-17T23:58:51.345Z,49.40
